sensor_id;sensor_type;location;lat;lon;timestamp;P1;durP1;ratioP1;P2;durP2;ratioP2
72590;SDS011;60625;51.212;5.952;2024-03-06T00:04:12;21.30;;;12.00;;
72590;SDS011;60625;51.212;5.952;2024-03-06T00:09:13;20.70;;;12.20;;
72590;SDS011;60625;51.212;5.952;2024-03-06T00:14:13;21.00;;;11.10;;
72590;SDS011;60625;51.212;5.952;2024-03-06T00:19:14;22.70;;;11.00;;
72590;SDS011;60625;51.212;5.952;2024-03-06T00:24:15;19.10;;;10.60;;
72590;SDS011;60625;51.212;5.952;2024-03-06T00:29:15;14.90;;;9.50;;
72590;SDS011;60625;51.212;5.952;2024-03-06T00:34:16;16.70;;;10.20;;
72590;SDS011;60625;51.212;5.952;2024-03-06T00:39:17;18.80;;;10.50;;
72590;SDS011;60625;51.212;5.952;2024-03-06T00:44:17;16.30;;;9.70;;
72590;SDS011;60625;51.212;5.952;2024-03-06T00:49:18;17.30;;;10.10;;
72590;SDS011;60625;51.212;5.952;2024-03-06T00:54:19;14.80;;;9.20;;
72590;SDS011;60625;51.212;5.952;2024-03-06T00:59:19;15.00;;;9.20;;
72590;SDS011;60625;51.212;5.952;2024-03-06T01:04:20;17.10;;;8.80;;
72590;SDS011;60625;51.212;5.952;2024-03-06T01:09:20;13.60;;;9.20;;
72590;SDS011;60625;51.212;5.952;2024-03-06T01:14:21;15.20;;;8.80;;
72590;SDS011;60625;51.212;5.952;2024-03-06T01:19:21;15.00;;;8.10;;
72590;SDS011;60625;51.212;5.952;2024-03-06T01:24:22;12.10;;;6.90;;
72590;SDS011;60625;51.212;5.952;2024-03-06T01:29:22;11.20;;;6.30;;
72590;SDS011;60625;51.212;5.952;2024-03-06T01:34:23;12.20;;;7.30;;
72590;SDS011;60625;51.212;5.952;2024-03-06T01:39:25;13.70;;;7.40;;
72590;SDS011;60625;51.212;5.952;2024-03-06T01:44:25;13.10;;;7.80;;
72590;SDS011;60625;51.212;5.952;2024-03-06T01:49:26;15.10;;;8.00;;
72590;SDS011;60625;51.212;5.952;2024-03-06T01:54:27;13.30;;;8.00;;
72590;SDS011;60625;51.212;5.952;2024-03-06T01:59:28;13.90;;;8.20;;
72590;SDS011;60625;51.212;5.952;2024-03-06T02:04:29;13.80;;;8.00;;
72590;SDS011;60625;51.212;5.952;2024-03-06T02:09:30;14.10;;;7.90;;
72590;SDS011;60625;51.212;5.952;2024-03-06T02:14:31;13.80;;;8.30;;
72590;SDS011;60625;51.212;5.952;2024-03-06T02:19:42;15.00;;;8.40;;
72590;SDS011;60625;51.212;5.952;2024-03-06T02:24:46;11.90;;;7.20;;
72590;SDS011;60625;51.212;5.952;2024-03-06T02:29:47;15.20;;;7.00;;
72590;SDS011;60625;51.212;5.952;2024-03-06T02:34:48;13.30;;;7.20;;
72590;SDS011;60625;51.212;5.952;2024-03-06T02:39:49;12.10;;;6.90;;
72590;SDS011;60625;51.212;5.952;2024-03-06T02:44:49;10.70;;;6.80;;
72590;SDS011;60625;51.212;5.952;2024-03-06T02:49:49;11.30;;;6.50;;
72590;SDS011;60625;51.212;5.952;2024-03-06T02:54:50;10.50;;;6.40;;
72590;SDS011;60625;51.212;5.952;2024-03-06T02:59:50;11.00;;;6.50;;
72590;SDS011;60625;51.212;5.952;2024-03-06T03:04:51;9.70;;;6.30;;
72590;SDS011;60625;51.212;5.952;2024-03-06T03:09:53;11.00;;;6.30;;
72590;SDS011;60625;51.212;5.952;2024-03-06T03:14:53;11.70;;;6.30;;
72590;SDS011;60625;51.212;5.952;2024-03-06T03:19:53;11.70;;;7.20;;
72590;SDS011;60625;51.212;5.952;2024-03-06T03:24:54;11.70;;;7.20;;
72590;SDS011;60625;51.212;5.952;2024-03-06T03:29:55;11.70;;;6.90;;
72590;SDS011;60625;51.212;5.952;2024-03-06T03:34:55;9.20;;;6.20;;
72590;SDS011;60625;51.212;5.952;2024-03-06T03:39:56;10.60;;;6.60;;
72590;SDS011;60625;51.212;5.952;2024-03-06T03:44:56;9.70;;;6.30;;
72590;SDS011;60625;51.212;5.952;2024-03-06T03:49:56;9.90;;;6.00;;
72590;SDS011;60625;51.212;5.952;2024-03-06T03:54:57;11.00;;;6.10;;
72590;SDS011;60625;51.212;5.952;2024-03-06T03:59:58;11.20;;;5.70;;
72590;SDS011;60625;51.212;5.952;2024-03-06T04:04:59;7.90;;;5.30;;
72590;SDS011;60625;51.212;5.952;2024-03-06T04:10:00;9.30;;;6.00;;
72590;SDS011;60625;51.212;5.952;2024-03-06T04:15:00;13.10;;;7.80;;
72590;SDS011;60625;51.212;5.952;2024-03-06T04:20:01;14.30;;;7.00;;
72590;SDS011;60625;51.212;5.952;2024-03-06T04:25:01;9.60;;;6.60;;
72590;SDS011;60625;51.212;5.952;2024-03-06T04:30:05;11.50;;;7.10;;
72590;SDS011;60625;51.212;5.952;2024-03-06T04:35:07;12.90;;;7.20;;
72590;SDS011;60625;51.212;5.952;2024-03-06T04:40:09;13.20;;;7.10;;
72590;SDS011;60625;51.212;5.952;2024-03-06T04:45:11;11.00;;;7.10;;
72590;SDS011;60625;51.212;5.952;2024-03-06T04:50:15;11.70;;;6.70;;
72590;SDS011;60625;51.212;5.952;2024-03-06T04:55:17;12.90;;;6.80;;
72590;SDS011;60625;51.212;5.952;2024-03-06T05:00:22;12.10;;;6.80;;
72590;SDS011;60625;51.212;5.952;2024-03-06T05:05:24;12.90;;;6.70;;
72590;SDS011;60625;51.212;5.952;2024-03-06T05:10:25;9.80;;;6.40;;
72590;SDS011;60625;51.212;5.952;2024-03-06T05:15:27;11.20;;;7.10;;
72590;SDS011;60625;51.212;5.952;2024-03-06T05:20:28;13.40;;;7.10;;
72590;SDS011;60625;51.212;5.952;2024-03-06T05:25:31;13.00;;;7.20;;
72590;SDS011;60625;51.212;5.952;2024-03-06T05:30:31;11.70;;;6.10;;
72590;SDS011;60625;51.212;5.952;2024-03-06T05:35:32;9.90;;;5.40;;
72590;SDS011;60625;51.212;5.952;2024-03-06T05:40:33;10.40;;;5.70;;
72590;SDS011;60625;51.212;5.952;2024-03-06T05:45:37;10.10;;;5.40;;
72590;SDS011;60625;51.212;5.952;2024-03-06T05:50:38;10.20;;;5.80;;
72590;SDS011;60625;51.212;5.952;2024-03-06T05:55:39;10.60;;;6.20;;
72590;SDS011;60625;51.212;5.952;2024-03-06T06:00:39;10.20;;;6.10;;
72590;SDS011;60625;51.212;5.952;2024-03-06T06:05:41;9.10;;;5.20;;
72590;SDS011;60625;51.212;5.952;2024-03-06T06:10:41;7.10;;;4.00;;
72590;SDS011;60625;51.212;5.952;2024-03-06T06:15:42;7.20;;;3.50;;
72590;SDS011;60625;51.212;5.952;2024-03-06T06:20:42;8.70;;;4.50;;
72590;SDS011;60625;51.212;5.952;2024-03-06T06:25:43;9.30;;;4.90;;
72590;SDS011;60625;51.212;5.952;2024-03-06T06:30:43;7.30;;;4.50;;
72590;SDS011;60625;51.212;5.952;2024-03-06T06:35:44;7.40;;;4.10;;
72590;SDS011;60625;51.212;5.952;2024-03-06T06:40:45;8.20;;;4.60;;
72590;SDS011;60625;51.212;5.952;2024-03-06T06:45:45;7.90;;;4.60;;
72590;SDS011;60625;51.212;5.952;2024-03-06T06:50:46;8.30;;;5.30;;
72590;SDS011;60625;51.212;5.952;2024-03-06T06:55:48;8.20;;;4.70;;
72590;SDS011;60625;51.212;5.952;2024-03-06T07:00:48;9.20;;;5.20;;
72590;SDS011;60625;51.212;5.952;2024-03-06T07:05:49;7.30;;;4.20;;
72590;SDS011;60625;51.212;5.952;2024-03-06T07:10:50;10.70;;;4.60;;
72590;SDS011;60625;51.212;5.952;2024-03-06T07:15:56;7.90;;;4.10;;
72590;SDS011;60625;51.212;5.952;2024-03-06T07:20:57;9.90;;;5.10;;
72590;SDS011;60625;51.212;5.952;2024-03-06T07:26:01;10.90;;;4.50;;
72590;SDS011;60625;51.212;5.952;2024-03-06T07:31:02;8.20;;;4.40;;
72590;SDS011;60625;51.212;5.952;2024-03-06T07:36:05;9.00;;;4.80;;
72590;SDS011;60625;51.212;5.952;2024-03-06T07:41:06;8.00;;;4.90;;
72590;SDS011;60625;51.212;5.952;2024-03-06T07:46:07;9.10;;;5.00;;
72590;SDS011;60625;51.212;5.952;2024-03-06T07:51:11;10.50;;;5.30;;
72590;SDS011;60625;51.212;5.952;2024-03-06T07:56:12;12.90;;;6.40;;
72590;SDS011;60625;51.212;5.952;2024-03-06T08:01:13;10.90;;;6.20;;
72590;SDS011;60625;51.212;5.952;2024-03-06T08:06:14;9.90;;;5.30;;
72590;SDS011;60625;51.212;5.952;2024-03-06T08:11:15;8.50;;;5.20;;
72590;SDS011;60625;51.212;5.952;2024-03-06T08:16:16;10.00;;;4.70;;
72590;SDS011;60625;51.212;5.952;2024-03-06T08:21:17;10.30;;;5.40;;
72590;SDS011;60625;51.212;5.952;2024-03-06T08:26:20;7.10;;;4.60;;
72590;SDS011;60625;51.212;5.952;2024-03-06T08:31:20;10.20;;;5.10;;
72590;SDS011;60625;51.212;5.952;2024-03-06T08:36:22;8.20;;;4.50;;
72590;SDS011;60625;51.212;5.952;2024-03-06T08:41:24;9.20;;;4.60;;
72590;SDS011;60625;51.212;5.952;2024-03-06T08:46:24;9.70;;;4.40;;
72590;SDS011;60625;51.212;5.952;2024-03-06T08:51:25;8.80;;;4.90;;
72590;SDS011;60625;51.212;5.952;2024-03-06T08:56:26;8.50;;;4.60;;
72590;SDS011;60625;51.212;5.952;2024-03-06T09:01:26;11.30;;;4.60;;
72590;SDS011;60625;51.212;5.952;2024-03-06T09:06:27;9.10;;;4.10;;
72590;SDS011;60625;51.212;5.952;2024-03-06T09:11:28;8.10;;;4.50;;
72590;SDS011;60625;51.212;5.952;2024-03-06T09:16:28;7.30;;;4.30;;
72590;SDS011;60625;51.212;5.952;2024-03-06T09:21:28;7.90;;;4.30;;
72590;SDS011;60625;51.212;5.952;2024-03-06T09:26:32;9.20;;;4.70;;
72590;SDS011;60625;51.212;5.952;2024-03-06T09:31:33;9.70;;;4.80;;
72590;SDS011;60625;51.212;5.952;2024-03-06T09:36:34;6.50;;;4.00;;
72590;SDS011;60625;51.212;5.952;2024-03-06T09:41:34;7.80;;;4.40;;
72590;SDS011;60625;51.212;5.952;2024-03-06T09:46:35;10.80;;;5.30;;
72590;SDS011;60625;51.212;5.952;2024-03-06T09:51:38;7.80;;;4.40;;
72590;SDS011;60625;51.212;5.952;2024-03-06T09:56:45;9.10;;;4.80;;
72590;SDS011;60625;51.212;5.952;2024-03-06T10:06:58;9.30;;;4.50;;
72590;SDS011;60625;51.212;5.952;2024-03-06T10:11:59;10.40;;;5.30;;
72590;SDS011;60625;51.212;5.952;2024-03-06T10:17:01;15.70;;;6.30;;
72590;SDS011;60625;51.212;5.952;2024-03-06T10:22:01;10.30;;;5.20;;
72590;SDS011;60625;51.212;5.952;2024-03-06T10:27:15;10.70;;;5.60;;
72590;SDS011;60625;51.212;5.952;2024-03-06T10:32:19;9.10;;;4.80;;
72590;SDS011;60625;51.212;5.952;2024-03-06T10:37:20;11.00;;;4.90;;
72590;SDS011;60625;51.212;5.952;2024-03-06T10:42:23;8.30;;;4.80;;
72590;SDS011;60625;51.212;5.952;2024-03-06T10:47:28;8.40;;;4.30;;
72590;SDS011;60625;51.212;5.952;2024-03-06T10:52:30;8.90;;;4.30;;
72590;SDS011;60625;51.212;5.952;2024-03-06T10:57:33;10.80;;;4.70;;
72590;SDS011;60625;51.212;5.952;2024-03-06T11:02:34;9.70;;;4.20;;
72590;SDS011;60625;51.212;5.952;2024-03-06T11:07:38;8.90;;;4.60;;
72590;SDS011;60625;51.212;5.952;2024-03-06T11:12:39;10.80;;;4.00;;
72590;SDS011;60625;51.212;5.952;2024-03-06T11:17:40;9.80;;;3.50;;
72590;SDS011;60625;51.212;5.952;2024-03-06T11:28:03;10.30;;;4.50;;
72590;SDS011;60625;51.212;5.952;2024-03-06T11:33:05;8.10;;;3.40;;
72590;SDS011;60625;51.212;5.952;2024-03-06T11:38:05;9.30;;;4.20;;
72590;SDS011;60625;51.212;5.952;2024-03-06T11:43:25;6.70;;;3.90;;
72590;SDS011;60625;51.212;5.952;2024-03-06T11:48:27;8.80;;;3.50;;
72590;SDS011;60625;51.212;5.952;2024-03-06T11:53:33;8.00;;;4.10;;
72590;SDS011;60625;51.212;5.952;2024-03-06T11:58:39;5.70;;;3.20;;
72590;SDS011;60625;51.212;5.952;2024-03-06T12:03:41;7.20;;;3.30;;
72590;SDS011;60625;51.212;5.952;2024-03-06T12:08:43;4.50;;;2.20;;
72590;SDS011;60625;51.212;5.952;2024-03-06T12:13:45;6.10;;;2.50;;
72590;SDS011;60625;51.212;5.952;2024-03-06T12:18:45;5.20;;;2.20;;
72590;SDS011;60625;51.212;5.952;2024-03-06T12:23:46;6.30;;;2.40;;
72590;SDS011;60625;51.212;5.952;2024-03-06T12:28:47;4.40;;;1.90;;
72590;SDS011;60625;51.212;5.952;2024-03-06T12:33:56;6.10;;;3.50;;
72590;SDS011;60625;51.212;5.952;2024-03-06T12:39:00;7.70;;;3.60;;
72590;SDS011;60625;51.212;5.952;2024-03-06T12:44:01;9.90;;;4.50;;
72590;SDS011;60625;51.212;5.952;2024-03-06T12:49:03;7.70;;;4.50;;
72590;SDS011;60625;51.212;5.952;2024-03-06T12:54:03;7.60;;;4.60;;
72590;SDS011;60625;51.212;5.952;2024-03-06T12:59:04;9.40;;;5.10;;
72590;SDS011;60625;51.212;5.952;2024-03-06T13:04:05;8.00;;;5.30;;
72590;SDS011;60625;51.212;5.952;2024-03-06T13:09:07;9.30;;;4.30;;
72590;SDS011;60625;51.212;5.952;2024-03-06T13:14:07;9.30;;;4.10;;
72590;SDS011;60625;51.212;5.952;2024-03-06T13:19:10;7.80;;;4.90;;
72590;SDS011;60625;51.212;5.952;2024-03-06T13:24:11;8.00;;;5.00;;
72590;SDS011;60625;51.212;5.952;2024-03-06T13:29:13;7.30;;;3.90;;
72590;SDS011;60625;51.212;5.952;2024-03-06T13:34:14;7.00;;;4.20;;
72590;SDS011;60625;51.212;5.952;2024-03-06T13:39:16;11.60;;;4.80;;
72590;SDS011;60625;51.212;5.952;2024-03-06T13:44:16;7.50;;;4.40;;
72590;SDS011;60625;51.212;5.952;2024-03-06T13:49:40;7.60;;;4.40;;
72590;SDS011;60625;51.212;5.952;2024-03-06T13:54:42;10.00;;;4.40;;
72590;SDS011;60625;51.212;5.952;2024-03-06T13:59:43;7.40;;;3.90;;
72590;SDS011;60625;51.212;5.952;2024-03-06T14:04:44;6.20;;;3.60;;
72590;SDS011;60625;51.212;5.952;2024-03-06T14:09:45;6.50;;;3.00;;
72590;SDS011;60625;51.212;5.952;2024-03-06T14:14:50;6.10;;;3.40;;
72590;SDS011;60625;51.212;5.952;2024-03-06T14:19:51;7.60;;;3.70;;
72590;SDS011;60625;51.212;5.952;2024-03-06T14:24:51;8.00;;;4.20;;
72590;SDS011;60625;51.212;5.952;2024-03-06T14:29:52;7.30;;;3.90;;
72590;SDS011;60625;51.212;5.952;2024-03-06T14:34:54;7.70;;;3.70;;
72590;SDS011;60625;51.212;5.952;2024-03-06T14:39:56;8.00;;;3.60;;
72590;SDS011;60625;51.212;5.952;2024-03-06T14:45:00;6.90;;;3.10;;
72590;SDS011;60625;51.212;5.952;2024-03-06T14:50:01;8.40;;;3.90;;
72590;SDS011;60625;51.212;5.952;2024-03-06T14:55:02;11.20;;;4.00;;
72590;SDS011;60625;51.212;5.952;2024-03-06T15:00:04;6.60;;;3.50;;
72590;SDS011;60625;51.212;5.952;2024-03-06T15:05:07;7.50;;;3.60;;
72590;SDS011;60625;51.212;5.952;2024-03-06T15:10:08;6.80;;;3.70;;
72590;SDS011;60625;51.212;5.952;2024-03-06T15:15:09;8.00;;;3.80;;
72590;SDS011;60625;51.212;5.952;2024-03-06T15:20:11;7.80;;;4.50;;
72590;SDS011;60625;51.212;5.952;2024-03-06T15:25:15;8.40;;;4.10;;
72590;SDS011;60625;51.212;5.952;2024-03-06T15:30:18;6.50;;;4.10;;
72590;SDS011;60625;51.212;5.952;2024-03-06T15:35:19;7.30;;;3.70;;
72590;SDS011;60625;51.212;5.952;2024-03-06T15:40:20;10.20;;;3.60;;
72590;SDS011;60625;51.212;5.952;2024-03-06T15:45:21;7.30;;;3.80;;
72590;SDS011;60625;51.212;5.952;2024-03-06T15:50:22;7.30;;;3.70;;
72590;SDS011;60625;51.212;5.952;2024-03-06T15:55:23;6.30;;;3.60;;
72590;SDS011;60625;51.212;5.952;2024-03-06T16:00:24;8.20;;;3.90;;
72590;SDS011;60625;51.212;5.952;2024-03-06T16:05:25;8.30;;;4.00;;
72590;SDS011;60625;51.212;5.952;2024-03-06T16:10:27;6.90;;;3.80;;
72590;SDS011;60625;51.212;5.952;2024-03-06T16:15:28;10.50;;;5.00;;
72590;SDS011;60625;51.212;5.952;2024-03-06T16:20:31;11.70;;;6.70;;
72590;SDS011;60625;51.212;5.952;2024-03-06T17:33:52;14.70;;;8.40;;
72590;SDS011;60625;51.212;5.952;2024-03-06T17:38:53;13.10;;;8.60;;
72590;SDS011;60625;51.212;5.952;2024-03-06T17:43:54;13.20;;;7.70;;
72590;SDS011;60625;51.212;5.952;2024-03-06T17:48:54;14.40;;;9.60;;
72590;SDS011;60625;51.212;5.952;2024-03-06T17:53:54;16.80;;;9.00;;
72590;SDS011;60625;51.212;5.952;2024-03-06T17:58:55;14.90;;;8.80;;
72590;SDS011;60625;51.212;5.952;2024-03-06T18:03:55;15.40;;;8.70;;
72590;SDS011;60625;51.212;5.952;2024-03-06T18:08:56;15.30;;;8.70;;
72590;SDS011;60625;51.212;5.952;2024-03-06T18:13:57;18.80;;;10.70;;
72590;SDS011;60625;51.212;5.952;2024-03-06T18:18:58;19.80;;;11.00;;
72590;SDS011;60625;51.212;5.952;2024-03-06T18:23:58;18.40;;;12.40;;
72590;SDS011;60625;51.212;5.952;2024-03-06T18:28:59;20.80;;;11.60;;
72590;SDS011;60625;51.212;5.952;2024-03-06T18:34:00;24.60;;;14.10;;
72590;SDS011;60625;51.212;5.952;2024-03-06T18:39:01;21.70;;;13.10;;
72590;SDS011;60625;51.212;5.952;2024-03-06T18:44:01;21.30;;;13.20;;
72590;SDS011;60625;51.212;5.952;2024-03-06T18:49:02;26.30;;;15.40;;
72590;SDS011;60625;51.212;5.952;2024-03-06T18:54:03;23.10;;;13.60;;
72590;SDS011;60625;51.212;5.952;2024-03-06T18:59:04;25.40;;;15.00;;
72590;SDS011;60625;51.212;5.952;2024-03-06T19:04:05;20.40;;;12.30;;
72590;SDS011;60625;51.212;5.952;2024-03-06T19:09:09;23.20;;;13.70;;
72590;SDS011;60625;51.212;5.952;2024-03-06T19:14:10;24.50;;;14.50;;
72590;SDS011;60625;51.212;5.952;2024-03-06T19:19:10;24.90;;;14.10;;
72590;SDS011;60625;51.212;5.952;2024-03-06T19:24:11;33.50;;;15.50;;
72590;SDS011;60625;51.212;5.952;2024-03-06T19:29:11;31.50;;;17.50;;
72590;SDS011;60625;51.212;5.952;2024-03-06T19:34:12;38.40;;;21.50;;
72590;SDS011;60625;51.212;5.952;2024-03-06T19:39:14;41.20;;;20.70;;
72590;SDS011;60625;51.212;5.952;2024-03-06T19:44:15;39.80;;;21.80;;
72590;SDS011;60625;51.212;5.952;2024-03-06T19:49:15;37.40;;;20.40;;
72590;SDS011;60625;51.212;5.952;2024-03-06T19:54:16;38.30;;;21.10;;
72590;SDS011;60625;51.212;5.952;2024-03-06T19:59:16;39.30;;;20.90;;
72590;SDS011;60625;51.212;5.952;2024-03-06T20:04:17;42.10;;;22.10;;
72590;SDS011;60625;51.212;5.952;2024-03-06T20:09:17;44.10;;;22.10;;
72590;SDS011;60625;51.212;5.952;2024-03-06T20:14:18;39.80;;;22.80;;
72590;SDS011;60625;51.212;5.952;2024-03-06T20:19:18;43.10;;;21.30;;
72590;SDS011;60625;51.212;5.952;2024-03-06T20:24:19;41.10;;;21.40;;
72590;SDS011;60625;51.212;5.952;2024-03-06T20:29:21;52.10;;;24.50;;
72590;SDS011;60625;51.212;5.952;2024-03-06T20:34:22;50.40;;;25.10;;
72590;SDS011;60625;51.212;5.952;2024-03-06T20:39:22;55.60;;;26.20;;
72590;SDS011;60625;51.212;5.952;2024-03-06T20:44:23;51.20;;;26.30;;
72590;SDS011;60625;51.212;5.952;2024-03-06T20:49:25;53.00;;;25.70;;
72590;SDS011;60625;51.212;5.952;2024-03-06T20:54:25;46.20;;;24.40;;
72590;SDS011;60625;51.212;5.952;2024-03-06T20:59:27;50.90;;;25.50;;
72590;SDS011;60625;51.212;5.952;2024-03-06T21:04:27;47.30;;;25.60;;
72590;SDS011;60625;51.212;5.952;2024-03-06T21:09:29;52.70;;;26.20;;
72590;SDS011;60625;51.212;5.952;2024-03-06T21:14:30;50.90;;;25.50;;
72590;SDS011;60625;51.212;5.952;2024-03-06T21:19:34;50.20;;;26.00;;
72590;SDS011;60625;51.212;5.952;2024-03-06T21:24:37;51.90;;;24.60;;
72590;SDS011;60625;51.212;5.952;2024-03-06T21:29:39;53.30;;;25.40;;
72590;SDS011;60625;51.212;5.952;2024-03-06T21:34:40;46.20;;;23.70;;
72590;SDS011;60625;51.212;5.952;2024-03-06T21:39:45;50.40;;;24.30;;
72590;SDS011;60625;51.212;5.952;2024-03-06T21:44:46;49.00;;;23.70;;
72590;SDS011;60625;51.212;5.952;2024-03-06T21:49:47;44.60;;;22.30;;
72590;SDS011;60625;51.212;5.952;2024-03-06T21:54:49;51.10;;;24.10;;
72590;SDS011;60625;51.212;5.952;2024-03-06T21:59:51;46.10;;;22.40;;
72590;SDS011;60625;51.212;5.952;2024-03-06T22:04:52;45.50;;;22.40;;
72590;SDS011;60625;51.212;5.952;2024-03-06T22:09:53;42.20;;;22.30;;
72590;SDS011;60625;51.212;5.952;2024-03-06T22:14:54;44.70;;;22.30;;
72590;SDS011;60625;51.212;5.952;2024-03-06T22:19:54;44.80;;;21.90;;
72590;SDS011;60625;51.212;5.952;2024-03-06T22:24:55;51.80;;;22.50;;
72590;SDS011;60625;51.212;5.952;2024-03-06T22:29:56;47.10;;;22.10;;
72590;SDS011;60625;51.212;5.952;2024-03-06T22:34:56;42.10;;;21.30;;
72590;SDS011;60625;51.212;5.952;2024-03-06T22:39:57;44.60;;;22.50;;
72590;SDS011;60625;51.212;5.952;2024-03-06T22:44:57;49.90;;;23.20;;
72590;SDS011;60625;51.212;5.952;2024-03-06T22:49:58;49.50;;;22.30;;
72590;SDS011;60625;51.212;5.952;2024-03-06T22:54:58;46.10;;;23.40;;
72590;SDS011;60625;51.212;5.952;2024-03-06T22:59:59;45.00;;;22.30;;
72590;SDS011;60625;51.212;5.952;2024-03-06T23:05:00;47.40;;;23.00;;
72590;SDS011;60625;51.212;5.952;2024-03-06T23:10:01;47.30;;;22.60;;
72590;SDS011;60625;51.212;5.952;2024-03-06T23:15:01;40.90;;;20.80;;
72590;SDS011;60625;51.212;5.952;2024-03-06T23:20:05;46.50;;;19.90;;
72590;SDS011;60625;51.212;5.952;2024-03-06T23:25:08;38.40;;;18.70;;
72590;SDS011;60625;51.212;5.952;2024-03-06T23:30:15;46.90;;;21.80;;
72590;SDS011;60625;51.212;5.952;2024-03-06T23:35:16;46.90;;;22.00;;
72590;SDS011;60625;51.212;5.952;2024-03-06T23:40:17;47.90;;;23.50;;
72590;SDS011;60625;51.212;5.952;2024-03-06T23:45:18;46.40;;;21.90;;
72590;SDS011;60625;51.212;5.952;2024-03-06T23:50:19;45.70;;;21.70;;
